createdAt,value
2022-09-27T00:00:25.511Z,1.23
2022-09-27T00:02:53.397Z,1.05
2022-09-27T00:05:21.552Z,1.13
2022-09-27T00:07:50.094Z,0.82
2022-09-27T00:10:18.101Z,1.50
2022-09-27T00:12:45.846Z,1.30
2022-09-27T00:15:16.563Z,1.50
2022-09-27T00:17:44.690Z,1.23
2022-09-27T00:20:12.406Z,1.02
2022-09-27T00:22:40.237Z,1.33
2022-09-27T00:25:08.734Z,1.23
2022-09-27T00:27:36.429Z,0.60
2022-09-27T00:30:04.279Z,1.08
2022-09-27T00:32:33.324Z,0.93
2022-09-27T00:35:01.221Z,1.17
2022-09-27T00:37:29.122Z,2.30
2022-09-27T00:39:56.809Z,1.88
2022-09-27T00:42:24.549Z,0.80
2022-09-27T00:45:14.551Z,1.52
2022-09-27T00:47:50.125Z,1.02
2022-09-27T00:50:29.684Z,1.73
2022-09-27T00:53:05.875Z,0.98
2022-09-27T00:55:37.853Z,0.70
2022-09-27T00:58:07.122Z,1.55
2022-09-27T01:00:35.404Z,2.08
2022-09-27T01:03:08.628Z,1.15
2022-09-27T01:05:36.515Z,1.00
2022-09-27T01:08:04.227Z,1.83
2022-09-27T01:10:38.496Z,0.75
2022-09-27T01:13:14.121Z,1.27
2022-09-27T01:15:51.069Z,0.98
2022-09-27T01:18:30.454Z,1.15
2022-09-27T01:21:39.352Z,1.17
2022-09-27T01:24:37.244Z,0.82
2022-09-27T01:27:48.530Z,1.38
2022-09-27T01:30:21.887Z,1.65
2022-09-27T01:35:30.578Z,2.28
2022-09-27T01:38:12.317Z,1.90
2022-09-27T01:40:47.515Z,0.93
2022-09-27T01:43:19.430Z,1.30
2022-09-27T01:45:53.373Z,2.58
2022-09-27T01:48:24.203Z,1.10
2022-09-27T01:50:57.012Z,0.95
2022-09-27T01:53:30.080Z,0.65
2022-09-27T01:55:58.918Z,0.93
2022-09-27T01:58:31.950Z,1.63
2022-09-27T02:01:02.038Z,1.13
2022-09-27T02:03:34.774Z,1.73
2022-09-27T02:06:08.893Z,1.95
2022-09-27T02:08:41.896Z,2.10
2022-09-27T02:11:12.351Z,0.95
2022-09-27T02:13:47.997Z,1.80
2022-09-27T02:16:30.673Z,1.00
2022-09-27T02:19:07.084Z,2.20
2022-09-27T02:21:43.838Z,1.05
2022-09-27T02:24:16.106Z,1.48
2022-09-27T02:26:47.443Z,1.10
2022-09-27T02:29:18.830Z,1.27
2022-09-27T02:31:48.067Z,2.20
2022-09-27T02:34:21.109Z,1.00
2022-09-27T02:36:49.455Z,1.20
2022-09-27T02:39:19.058Z,1.00
2022-09-27T02:41:47.195Z,1.80
2022-09-27T02:44:17.565Z,1.90
2022-09-27T02:47:16.934Z,1.70
2022-09-27T02:50:02.148Z,1.70
2022-09-27T02:52:41.198Z,0.98
2022-09-27T02:55:18.225Z,0.98
2022-09-27T02:58:01.670Z,1.17
2022-09-27T03:00:37.047Z,0.98
2022-09-27T03:03:14.242Z,0.98
2022-09-27T03:05:46.987Z,1.58
2022-09-27T03:08:15.276Z,1.80
2022-09-27T03:10:42.924Z,1.27
2022-09-27T03:13:10.865Z,1.33
2022-09-27T03:15:38.623Z,2.63
2022-09-27T03:18:07.938Z,0.88
2022-09-27T03:20:35.591Z,0.98
2022-09-27T03:23:03.288Z,1.13
2022-09-27T03:25:31.009Z,1.10
2022-09-27T03:27:58.746Z,1.23
2022-09-27T03:30:26.435Z,1.65
2022-09-27T03:32:54.201Z,1.13
2022-09-27T03:35:23.486Z,1.80
2022-09-27T03:37:51.236Z,0.90
2022-09-27T03:40:19.015Z,1.10
2022-09-27T03:42:49.784Z,1.90
2022-09-27T03:45:17.965Z,1.40
2022-09-27T03:47:45.761Z,0.70
2022-09-27T03:50:13.817Z,1.85
2022-09-27T03:52:43.641Z,0.50
2022-09-27T03:55:12.130Z,1.40
2022-09-27T03:57:40.237Z,1.10
2022-09-27T04:00:09.302Z,0.93
2022-09-27T04:02:37.084Z,1.15
2022-09-27T04:05:05.278Z,1.27
2022-09-27T04:07:33.098Z,1.15
2022-09-27T04:10:02.140Z,0.98
2022-09-27T04:12:30.131Z,1.10
2022-09-27T04:14:57.810Z,1.13
2022-09-27T04:17:27.453Z,1.83
2022-09-27T04:19:55.137Z,1.45
2022-09-27T04:22:23.643Z,1.27
2022-09-27T04:24:51.421Z,1.58
2022-09-27T04:27:21.518Z,0.98
2022-09-27T04:29:49.306Z,1.02
2022-09-27T04:32:17.043Z,0.88
2022-09-27T04:35:02.414Z,2.13
2022-09-27T04:37:30.201Z,1.17
2022-09-27T04:39:57.849Z,1.75
2022-09-27T04:42:28.708Z,1.40
2022-09-27T04:44:56.658Z,0.80
2022-09-27T04:47:24.439Z,0.82
2022-09-27T04:49:52.111Z,1.38
2022-09-27T04:52:19.837Z,1.23
2022-09-27T04:54:47.784Z,1.98
2022-09-27T04:57:15.521Z,1.35
2022-09-27T04:59:44.557Z,1.17
2022-09-27T05:02:12.438Z,2.10
2022-09-27T05:04:40.172Z,0.98
2022-09-27T05:07:07.916Z,1.52
2022-09-27T05:09:35.569Z,1.15
2022-09-27T05:12:04.317Z,1.65
2022-09-27T05:14:31.986Z,1.80
2022-09-27T05:17:01.145Z,1.13
2022-09-27T05:19:28.968Z,1.40
2022-09-27T05:21:56.745Z,1.52
2022-09-27T05:24:24.452Z,1.13
2022-09-27T05:26:52.382Z,1.30
2022-09-27T05:29:20.054Z,0.95
2022-09-27T05:31:47.934Z,1.05
2022-09-27T05:34:19.908Z,1.27
2022-09-27T05:36:48.323Z,1.15
2022-09-27T05:39:17.240Z,2.53
2022-09-27T05:41:45.592Z,2.45
2022-09-27T05:44:14.205Z,1.15
2022-09-27T05:46:41.946Z,1.13
2022-09-27T05:49:09.645Z,0.68
2022-09-27T05:51:38.853Z,1.63
2022-09-27T05:54:06.665Z,0.70
2022-09-27T05:56:34.722Z,1.23
2022-09-27T05:59:02.434Z,1.35
2022-09-27T06:01:30.115Z,1.45
2022-09-27T06:03:57.848Z,1.30
2022-09-27T06:06:25.581Z,1.40
2022-09-27T06:08:54.724Z,1.75
2022-09-27T06:11:22.414Z,1.05
2022-09-27T06:13:50.098Z,1.48
2022-09-27T06:16:17.851Z,0.88
2022-09-27T06:18:45.556Z,1.33
2022-09-27T06:21:13.672Z,1.77
2022-09-27T06:23:41.379Z,1.38
2022-09-27T06:26:10.951Z,1.20
2022-09-27T06:28:38.782Z,1.20
2022-09-27T06:31:08.233Z,0.80
2022-09-27T06:33:36.676Z,1.00
2022-09-27T06:36:05.865Z,1.35
2022-09-27T06:38:34.146Z,0.90
2022-09-27T06:41:03.136Z,2.05
2022-09-27T06:43:33.467Z,1.85
2022-09-27T06:46:04.709Z,1.05
2022-09-27T06:48:33.585Z,1.10
2022-09-27T06:51:01.251Z,0.80
2022-09-27T06:53:29.894Z,1.70
2022-09-27T06:56:00.009Z,2.03
2022-09-27T06:58:45.302Z,1.25
2022-09-27T07:01:14.868Z,1.05
2022-09-27T07:03:44.178Z,0.80
2022-09-27T07:06:17.906Z,1.30
2022-09-27T07:08:46.053Z,1.33
2022-09-27T07:11:15.451Z,1.42
2022-09-27T07:13:43.663Z,1.38
2022-09-27T07:16:14.369Z,1.40
2022-09-27T07:18:42.566Z,1.42
2022-09-27T07:21:12.539Z,1.23
2022-09-27T07:23:40.444Z,1.23
2022-09-27T07:26:10.583Z,1.08
2022-09-27T07:28:40.341Z,0.70
2022-09-27T07:31:10.799Z,1.00
2022-09-27T07:33:43.184Z,2.17
2022-09-27T07:36:13.291Z,1.88
2022-09-27T07:38:41.258Z,1.10
2022-09-27T07:41:09.713Z,0.90
2022-09-27T07:43:37.555Z,1.45
2022-09-27T07:46:05.281Z,1.75
2022-09-27T07:48:33.557Z,1.05
2022-09-27T07:51:02.578Z,1.92
2022-09-27T07:53:30.271Z,0.93
2022-09-27T07:55:58.930Z,2.85
2022-09-27T07:58:26.987Z,1.23
2022-09-27T08:00:57.006Z,2.08
2022-09-27T08:03:24.810Z,1.63
2022-09-27T08:05:52.550Z,1.60
2022-09-27T08:08:21.581Z,0.80
2022-09-27T08:10:49.393Z,1.10
2022-09-27T08:13:20.298Z,2.13
2022-09-27T08:15:48.608Z,1.75
2022-09-27T08:18:16.471Z,2.75
2022-09-27T08:20:44.168Z,1.30
2022-09-27T08:23:11.989Z,1.05
2022-09-27T08:25:42.113Z,2.45
2022-09-27T08:28:10.405Z,1.17
2022-09-27T08:30:38.344Z,1.40
2022-09-27T08:33:06.072Z,1.30
2022-09-27T08:35:34.339Z,1.95
2022-09-27T08:38:05.519Z,1.60
2022-09-27T08:40:47.624Z,1.67
2022-09-27T08:43:21.305Z,2.20
2022-09-27T08:46:08.662Z,1.27
2022-09-27T08:48:39.284Z,1.30
2022-09-27T08:51:11.891Z,1.05
2022-09-27T08:53:44.311Z,1.73
2022-09-27T08:56:15.435Z,1.60
2022-09-27T08:58:49.107Z,2.50
2022-09-27T09:01:18.299Z,2.45
2022-09-27T09:03:49.934Z,1.85
2022-09-27T09:06:23.370Z,2.45
2022-09-27T09:09:05.199Z,1.70
2022-09-27T09:12:04.786Z,1.83
2022-09-27T09:14:53.824Z,1.85
2022-09-27T09:17:34.784Z,2.38
2022-09-27T09:20:17.693Z,1.77
2022-09-27T09:23:05.618Z,1.63
2022-09-27T09:25:40.954Z,1.58
2022-09-27T09:28:24.866Z,3.10
2022-09-27T09:31:04.051Z,1.75
2022-09-27T09:33:35.349Z,1.88
2022-09-27T09:36:07.441Z,3.65
2022-09-27T09:38:40.635Z,1.52
2022-09-27T09:41:16.773Z,1.25
2022-09-27T09:43:51.154Z,1.73
2022-09-27T09:46:23.827Z,1.70
2022-09-27T09:48:56.286Z,2.25
2022-09-27T09:51:29.016Z,3.50
2022-09-27T09:54:04.182Z,3.60
2022-09-27T09:56:35.361Z,2.70
2022-09-27T09:59:12.574Z,1.52
2022-09-27T10:01:43.167Z,2.05
2022-09-27T10:04:16.934Z,2.00
2022-09-27T10:06:44.952Z,2.63
2022-09-27T10:09:15.182Z,2.97
2022-09-27T10:11:45.934Z,1.85
2022-09-27T10:14:17.718Z,1.83
2022-09-27T10:16:48.816Z,3.08
2022-09-27T10:19:22.995Z,2.40
2022-09-27T10:21:52.564Z,1.73
2022-09-27T10:24:20.783Z,1.83
2022-09-27T10:26:51.646Z,2.92
2022-09-27T10:29:26.151Z,2.08
2022-09-27T10:31:54.240Z,1.98
2022-09-27T10:34:28.103Z,3.67
2022-09-27T10:37:08.187Z,3.03
2022-09-27T10:39:37.189Z,1.83
2022-09-27T10:42:21.639Z,2.58
2022-09-27T10:44:51.036Z,2.60
2022-09-27T10:47:23.703Z,2.25
2022-09-27T10:49:52.853Z,2.67
2022-09-27T10:52:22.629Z,2.63
2022-09-27T10:54:58.213Z,2.60
2022-09-27T10:57:28.585Z,2.00
2022-09-27T11:00:00.665Z,2.17
2022-09-27T11:02:31.780Z,2.78
2022-09-27T11:05:15.231Z,2.22
2022-09-27T11:07:50.278Z,2.67
2022-09-27T11:10:27.914Z,1.90
2022-09-27T11:13:14.471Z,3.22
2022-09-27T11:16:16.322Z,2.28
2022-09-27T11:18:56.645Z,2.22
2022-09-27T11:21:35.030Z,2.17
2022-09-27T11:24:13.518Z,2.60
2022-09-27T11:26:50.319Z,2.63
2022-09-27T11:29:28.890Z,3.03
2022-09-27T11:32:14.352Z,2.17
2022-09-27T11:35:00.023Z,1.85
2022-09-27T11:37:36.393Z,3.15
2022-09-27T11:40:19.431Z,2.33
2022-09-27T11:43:03.461Z,2.50
2022-09-27T11:46:14.230Z,2.70
2022-09-27T11:48:48.186Z,2.70
2022-09-27T11:51:29.544Z,3.08
2022-09-27T11:54:14.022Z,2.50
2022-09-27T11:56:50.853Z,2.47
2022-09-27T11:59:44.782Z,3.42
2022-09-27T12:02:30.365Z,1.83
2022-09-27T12:05:16.342Z,3.55
2022-09-27T12:07:53.818Z,2.55
2022-09-27T12:10:22.506Z,2.72
2022-09-27T12:12:54.163Z,1.75
2022-09-27T12:15:25.862Z,2.75
2022-09-27T12:17:57.386Z,2.78
2022-09-27T12:20:31.039Z,2.25
2022-09-27T12:23:02.472Z,2.40
2022-09-27T12:25:35.574Z,2.63
2022-09-27T12:28:09.642Z,3.70
2022-09-27T12:30:43.185Z,2.60
2022-09-27T12:33:19.661Z,3.35
2022-09-27T12:35:53.731Z,1.80
2022-09-27T12:38:25.238Z,3.13
2022-09-27T12:40:58.476Z,2.70
2022-09-27T12:43:28.838Z,1.10
2022-09-27T12:46:09.274Z,3.35
2022-09-27T12:48:47.345Z,2.97
2022-09-27T12:51:18.438Z,2.03
2022-09-27T12:54:01.491Z,1.98
2022-09-27T12:56:41.729Z,3.08
2022-09-27T12:59:26.331Z,1.85
2022-09-27T13:02:14.381Z,2.13
2022-09-27T13:04:57.986Z,1.90
2022-09-27T13:07:41.954Z,2.38
2022-09-27T13:10:36.471Z,1.73
2022-09-27T13:13:06.183Z,2.35
2022-09-27T13:15:39.619Z,2.80
2022-09-27T13:18:08.460Z,2.38
2022-09-27T13:20:49.240Z,2.42
2022-09-27T13:24:03.629Z,2.13
2022-09-27T13:29:34.287Z,2.75
2022-09-27T13:32:18.470Z,2.22
2022-09-27T13:34:48.034Z,1.70
2022-09-27T13:37:38.234Z,2.17
2022-09-27T13:40:32.172Z,2.28
2022-09-27T13:43:41.911Z,2.03
2022-09-27T13:46:17.953Z,1.10
2022-09-27T13:48:51.919Z,2.47
2022-09-27T13:51:37.665Z,2.25
2022-09-27T13:54:10.612Z,3.05
2022-09-27T13:59:34.470Z,1.42
2022-09-27T14:02:15.103Z,2.78
2022-09-27T14:04:47.170Z,1.95
2022-09-27T14:07:18.234Z,1.40
2022-09-27T14:09:50.142Z,1.77
2022-09-27T14:12:20.834Z,2.20
2022-09-27T14:14:50.789Z,1.75
2022-09-27T14:17:20.113Z,1.58
2022-09-27T14:19:49.291Z,1.20
2022-09-27T14:22:18.925Z,1.80
2022-09-27T14:24:49.490Z,1.48
2022-09-27T14:27:19.927Z,1.48
2022-09-27T14:29:50.898Z,1.48
2022-09-27T14:32:21.650Z,2.03
2022-09-27T14:35:04.983Z,0.98
2022-09-27T14:37:32.420Z,1.42
2022-09-27T14:40:02.980Z,1.25
2022-09-27T14:42:36.315Z,1.30
2022-09-27T14:45:15.603Z,0.90
2022-09-27T14:47:48.821Z,1.30
2022-09-27T14:52:49.815Z,1.00
2022-09-27T14:55:20.232Z,1.13
2022-09-27T14:57:52.132Z,1.33
2022-09-27T15:00:22.868Z,1.30
2022-09-27T15:02:55.149Z,1.10
2022-09-27T15:05:24.914Z,1.17
2022-09-27T15:07:55.693Z,1.27
2022-09-27T15:10:27.150Z,1.00
2022-09-27T15:12:59.825Z,1.88
2022-09-27T15:15:31.952Z,1.25
2022-09-27T15:18:01.398Z,1.45
2022-09-27T15:20:34.833Z,1.42
2022-09-27T15:23:04.411Z,1.77
2022-09-27T15:25:35.384Z,1.48
2022-09-27T15:28:05.864Z,2.25
2022-09-27T15:30:38.949Z,1.75
2022-09-27T15:33:19.393Z,1.17
2022-09-27T15:35:51.277Z,0.60
2022-09-27T15:38:31.081Z,1.23
2022-09-27T15:41:05.454Z,1.80
2022-09-27T15:43:35.973Z,1.83
2022-09-27T15:46:06.887Z,1.48
2022-09-27T15:48:37.686Z,1.08
2022-09-27T15:51:40.213Z,1.55
2022-09-27T15:54:07.926Z,1.58
2022-09-27T15:56:36.522Z,1.90
2022-09-27T15:59:04.522Z,1.92
2022-09-27T16:01:32.377Z,0.90
2022-09-27T16:04:01.763Z,1.52
2022-09-27T16:06:30.222Z,1.05
2022-09-27T16:08:57.938Z,0.77
2022-09-27T16:11:25.644Z,0.82
2022-09-27T16:13:55.058Z,0.90
2022-09-27T16:16:23.558Z,1.27
2022-09-27T16:18:51.378Z,0.68
2022-09-27T16:21:20.457Z,1.17
2022-09-27T16:23:48.202Z,1.20
2022-09-27T16:26:15.889Z,0.70
2022-09-27T16:28:43.628Z,0.52
2022-09-27T16:31:11.421Z,0.73
2022-09-27T16:33:39.637Z,0.73
2022-09-27T16:36:14.297Z,0.50
2022-09-27T16:38:43.702Z,0.60
2022-09-27T16:41:11.458Z,1.08
2022-09-27T16:43:39.558Z,0.63
2022-09-27T16:46:09.243Z,1.10
2022-09-27T16:48:37.048Z,0.52
2022-09-27T16:51:24.178Z,0.73
2022-09-27T16:53:53.244Z,0.80
2022-09-27T16:56:21.247Z,1.27
2022-09-27T16:58:48.978Z,0.63
2022-09-27T17:01:17.404Z,0.98
2022-09-27T17:03:45.908Z,0.90
2022-09-27T17:06:13.831Z,0.80
2022-09-27T17:08:41.516Z,0.90
2022-09-27T17:11:14.605Z,0.65
2022-09-27T17:13:42.971Z,0.98
2022-09-27T17:16:11.051Z,1.25
2022-09-27T17:18:39.420Z,1.20
2022-09-27T17:21:09.283Z,1.25
2022-09-27T17:23:37.291Z,1.35
2022-09-27T17:26:06.558Z,1.77
2022-09-27T17:28:36.322Z,1.13
2022-09-27T17:31:10.693Z,1.23
2022-09-27T17:33:43.497Z,0.95
2022-09-27T17:36:13.034Z,1.05
2022-09-27T17:38:41.391Z,0.90
2022-09-27T17:41:11.440Z,1.50
2022-09-27T17:43:46.577Z,1.13
2022-09-27T17:46:14.314Z,1.05
2022-09-27T17:48:59.593Z,0.68
2022-09-27T17:51:27.333Z,1.67
2022-09-27T17:53:54.990Z,0.98
2022-09-27T17:56:23.286Z,0.85
2022-09-27T17:58:54.491Z,0.80
2022-09-27T18:01:24.351Z,1.38
2022-09-27T18:03:54.494Z,0.90
2022-09-27T18:06:23.704Z,0.98
2022-09-27T18:08:51.906Z,1.33
2022-09-27T18:11:25.233Z,1.05
2022-09-27T18:16:32.060Z,1.00
2022-09-27T18:19:01.140Z,0.90
2022-09-27T18:21:31.425Z,0.70
2022-09-27T18:24:02.918Z,0.70
2022-09-27T18:26:30.734Z,0.77
2022-09-27T18:29:03.917Z,0.90
2022-09-27T18:33:59.373Z,0.47
2022-09-27T18:36:28.601Z,0.60
2022-09-27T18:38:58.316Z,1.38
2022-09-27T18:41:28.089Z,0.65
2022-09-27T18:43:58.771Z,0.35
2022-09-27T18:46:37.303Z,1.23
2022-09-27T18:49:07.522Z,0.52
2022-09-27T18:51:37.469Z,1.42
2022-09-27T18:54:09.197Z,0.68
2022-09-27T18:56:39.424Z,0.93
2022-09-27T18:59:08.901Z,0.80
2022-09-27T19:01:40.340Z,0.60
2022-09-27T19:04:09.009Z,0.50
2022-09-27T19:06:37.692Z,0.22
2022-09-27T19:09:06.772Z,0.20
2022-09-27T19:11:34.947Z,0.30
2022-09-27T19:14:03.478Z,0.60
2022-09-27T19:16:31.768Z,0.13
2022-09-27T19:19:00.911Z,0.50
2022-09-27T19:21:29.923Z,0.20
2022-09-27T19:23:58.263Z,0.28
2022-09-27T19:26:27.164Z,0.50
2022-09-27T19:28:55.057Z,0.90
2022-09-27T19:31:24.969Z,0.65
2022-09-27T19:33:58.966Z,0.75
2022-09-27T19:36:29.358Z,0.70
2022-09-27T19:38:58.514Z,1.02
2022-09-27T19:41:27.330Z,0.40
2022-09-27T19:43:56.114Z,0.52
2022-09-27T19:46:25.418Z,0.85
2022-09-27T19:48:54.165Z,0.28
2022-09-27T19:51:23.403Z,0.52
2022-09-27T19:53:53.509Z,0.52
2022-09-27T19:56:22.074Z,0.30
2022-09-27T19:58:50.224Z,0.20
2022-09-27T20:01:20.289Z,0.40
2022-09-27T20:03:49.410Z,0.30
2022-09-27T20:06:19.245Z,0.20
2022-09-27T20:08:48.267Z,0.30
2022-09-27T20:11:18.932Z,0.40
2022-09-27T20:13:46.626Z,0.32
2022-09-27T20:16:16.377Z,0.10
2022-09-27T20:18:46.314Z,0.38
2022-09-27T20:21:14.736Z,0.82
2022-09-27T20:23:42.485Z,0.73
2022-09-27T20:26:11.862Z,0.20
2022-09-27T20:28:43.817Z,0.28
2022-09-27T20:31:15.088Z,0.35
2022-09-27T20:33:43.834Z,0.22
2022-09-27T20:36:13.409Z,0.40
2022-09-27T20:38:42.094Z,0.30
2022-09-27T20:41:10.893Z,0.20
2022-09-27T20:43:38.909Z,0.55
2022-09-27T20:46:09.439Z,0.40
2022-09-27T20:48:38.162Z,0.55
2022-09-27T20:51:06.482Z,0.45
2022-09-27T20:53:34.993Z,0.38
2022-09-27T20:56:03.616Z,0.40
2022-09-27T20:58:32.336Z,0.20
2022-09-27T21:01:06.588Z,0.10
2022-09-27T21:03:35.737Z,0.17
2022-09-27T21:06:04.520Z,0.30
2022-09-27T21:08:34.242Z,0.30
2022-09-27T21:11:07.381Z,0.17
2022-09-27T21:13:35.717Z,0.10
2022-09-27T21:16:05.316Z,0.13
2022-09-27T21:18:34.833Z,0.20
2022-09-27T21:21:04.016Z,0.40
2022-09-27T21:23:32.889Z,0.30
2022-09-27T21:26:06.310Z,0.22
2022-09-27T21:28:36.277Z,0.63
2022-09-27T21:31:06.195Z,0.25
2022-09-27T21:33:35.593Z,0.22
2022-09-27T21:36:04.174Z,0.30
2022-09-27T21:38:32.749Z,0.25
2022-09-27T21:41:03.167Z,0.35
2022-09-27T21:43:32.644Z,0.20
2022-09-27T21:46:04.681Z,0.43
2022-09-27T21:48:33.130Z,0.20
2022-09-27T21:51:06.750Z,0.30
2022-09-27T21:53:35.251Z,0.20
2022-09-27T21:56:03.586Z,0.40
2022-09-27T21:58:34.245Z,0.50
2022-09-27T22:01:08.066Z,0.73
2022-09-27T22:03:37.113Z,0.85
2022-09-27T22:06:07.283Z,0.20
2022-09-27T22:08:35.273Z,0.50
2022-09-27T22:11:03.070Z,0.30
2022-09-27T22:13:30.795Z,0.17
2022-09-27T22:16:03.291Z,1.08
2022-09-27T22:18:31.060Z,0.60
2022-09-27T22:21:02.807Z,0.25
2022-09-27T22:23:32.045Z,0.52
2022-09-27T22:26:00.234Z,0.43
2022-09-27T22:28:28.281Z,0.32
2022-09-27T22:30:56.066Z,0.60
2022-09-27T22:33:23.805Z,0.40
2022-09-27T22:35:51.506Z,0.73
2022-09-27T22:38:19.188Z,0.52
2022-09-27T22:40:54.918Z,0.30
2022-09-27T22:43:22.701Z,0.20
2022-09-27T22:45:50.753Z,0.60
2022-09-27T22:48:19.001Z,0.40
2022-09-27T22:50:46.913Z,0.30
2022-09-27T22:53:15.154Z,0.73
2022-09-27T22:55:42.838Z,1.13
2022-09-27T22:58:11.944Z,1.00
2022-09-27T23:00:39.712Z,0.47
2022-09-27T23:03:07.413Z,0.73
2022-09-27T23:05:35.133Z,0.90
2022-09-27T23:08:03.029Z,0.70
2022-09-27T23:10:31.026Z,0.60
2022-09-27T23:12:59.016Z,1.55
2022-09-27T23:15:28.059Z,0.52
2022-09-27T23:17:55.958Z,0.50
2022-09-27T23:20:24.058Z,0.20
2022-09-27T23:22:51.990Z,0.30
2022-09-27T23:25:19.648Z,0.73
2022-09-27T23:27:47.558Z,0.52
2022-09-27T23:30:16.354Z,0.55
2022-09-27T23:32:45.842Z,0.60
2022-09-27T23:35:14.024Z,0.65
2022-09-27T23:37:43.039Z,0.47
2022-09-27T23:40:12.172Z,0.40
2022-09-27T23:42:39.902Z,0.55
2022-09-27T23:45:08.594Z,0.57
2022-09-27T23:47:36.319Z,0.77
2022-09-27T23:50:06.312Z,0.40
2022-09-27T23:52:34.040Z,0.85
2022-09-27T23:55:01.791Z,0.70
2022-09-27T23:57:29.570Z,0.55
2022-09-27T23:59:57.222Z,0.20
